Andover, OH

7:14 AM EST on February 01, 2015 (GMT -0500)
Ashtabula County | Change Station
CLOSE
Current Station
Airport
Location: Ashtabula,
Elevation: 922 ft
Nearby Weather Stations
Active Advisory: Winter Storm Warning

Elev 922 ft 41.78 °N, 80.70 °W | Updated 1 hour ago

Snow
Snow
26 °F
Feels Like 26 °F
N
0
Wind Variable Wind from North

Today
High -- | Low -- °F
--% Chance of Precip.
Yesterday
High -- | Low -- °F
Precip. -- in
7:34 AM 5:37 PM
Waxing Gibbous, 94% visible
Pressure 30.20 in
Visibility 4.0 miles
Clouds Few 1800 ft
Overcast 3600 ft
Dew Point 22 °F
Humidity 84%
Rainfall 0.00 in
Snow Depth Not available.
UV 0 out of 12
Pollen .10 out of 12
Air Quality Not available.
Flu Activity Not available.
METAR KHZY 011053Z AUTO 00000KT 4SM -SN BR FEW018 OVC036 M03/M06 A3016 RMK AO2 SNB16 SLP225 P0000 T10331056

More Conditions Fewer Conditions

Pressure 30.20 in
Visibility 4.0 miles
Clouds Few 1800 ft
Overcast 3600 ft
Dew Point 22 °F
Humidity 84%
Rainfall 0.00 in
Snow Depth Not available.
UV 0 out of 12
Pollen .10 out of 12
Air Quality Not available.
Flu Activity Not available.
METAR KHZY 011053Z AUTO 00000KT 4SM -SN BR FEW018 OVC036 M03/M06 A3016 RMK AO2 SNB16 SLP225 P0000 T10331056

More Conditions Fewer Conditions

10-Day Weather Forecast

Almanac

Astronomy

Feb. 01, 2015 Rise Set
Actual Time
Civil Twilight
Nautical Twilight
Astronomical Twilight
Moon
Length of Visible Light
Length of Day
Tomorrow will be .
, % of the Moon is Illuminated

Today's Extremes

State Highs State Lows

Community

WunderPhotos

Upload Photos

1,792,349 photos uploaded!

WunderBlogs® & News

Nearby

Air Quality

  Air Quality AQ Index Pollutant
Not available.

Snow Depth

Station Depth Elevation

Earthquake Activity

City Distance Mag. Time & Date
Minimum magnitude displayed is 2.5.

Coastal Water Temperatures

Place Temperature

Nearby Weather Stations